sensor_id;sensor_type;location;lat;lon;timestamp;P1;durP1;ratioP1;P2;durP2;ratioP2
14858;SDS011;7521;51.700;6.874;2024-02-23T00:02:45;2.10;;;0.10;;
14858;SDS011;7521;51.700;6.874;2024-02-23T00:05:50;0.80;;;0.20;;
14858;SDS011;7521;51.700;6.874;2024-02-23T00:08:55;0.60;;;0.20;;
14858;SDS011;7521;51.700;6.874;2024-02-23T00:12:00;0.33;;;0.30;;
14858;SDS011;7521;51.700;6.874;2024-02-23T00:15:06;1.37;;;0.20;;
14858;SDS011;7521;51.700;6.874;2024-02-23T00:18:15;1.33;;;0.30;;
14858;SDS011;7521;51.700;6.874;2024-02-23T00:21:22;0.83;;;0.20;;
14858;SDS011;7521;51.700;6.874;2024-02-23T00:24:28;0.60;;;0.30;;
14858;SDS011;7521;51.700;6.874;2024-02-23T00:27:34;0.40;;;0.40;;
14858;SDS011;7521;51.700;6.874;2024-02-23T00:30:39;1.63;;;0.83;;
14858;SDS011;7521;51.700;6.874;2024-02-23T00:33:44;0.50;;;0.43;;
14858;SDS011;7521;51.700;6.874;2024-02-23T00:36:49;1.80;;;0.90;;
14858;SDS011;7521;51.700;6.874;2024-02-23T00:39:55;2.13;;;1.05;;
14858;SDS011;7521;51.700;6.874;2024-02-23T00:43:00;3.17;;;0.60;;
14858;SDS011;7521;51.700;6.874;2024-02-23T00:46:06;0.50;;;0.40;;
14858;SDS011;7521;51.700;6.874;2024-02-23T00:49:12;1.17;;;0.30;;
14858;SDS011;7521;51.700;6.874;2024-02-23T00:52:17;0.70;;;0.30;;
14858;SDS011;7521;51.700;6.874;2024-02-23T00:55:24;1.43;;;0.40;;
14858;SDS011;7521;51.700;6.874;2024-02-23T00:58:31;1.83;;;0.50;;
14858;SDS011;7521;51.700;6.874;2024-02-23T01:01:36;1.77;;;0.40;;
14858;SDS011;7521;51.700;6.874;2024-02-23T01:04:42;1.87;;;0.60;;
14858;SDS011;7521;51.700;6.874;2024-02-23T01:07:47;1.05;;;0.80;;
14858;SDS011;7521;51.700;6.874;2024-02-23T01:10:53;2.33;;;0.90;;
14858;SDS011;7521;51.700;6.874;2024-02-23T01:13:58;3.23;;;0.90;;
14858;SDS011;7521;51.700;6.874;2024-02-23T01:17:03;1.60;;;1.20;;
14858;SDS011;7521;51.700;6.874;2024-02-23T01:20:09;1.07;;;0.97;;
14858;SDS011;7521;51.700;6.874;2024-02-23T01:23:14;1.47;;;1.20;;
14858;SDS011;7521;51.700;6.874;2024-02-23T01:26:20;1.70;;;1.53;;
14858;SDS011;7521;51.700;6.874;2024-02-23T01:29:25;1.98;;;1.70;;
14858;SDS011;7521;51.700;6.874;2024-02-23T01:32:31;4.77;;;1.97;;
14858;SDS011;7521;51.700;6.874;2024-02-23T01:35:36;6.07;;;2.00;;
14858;SDS011;7521;51.700;6.874;2024-02-23T01:38:41;4.23;;;1.80;;
14858;SDS011;7521;51.700;6.874;2024-02-23T01:41:47;3.60;;;1.50;;
14858;SDS011;7521;51.700;6.874;2024-02-23T01:44:53;2.67;;;1.50;;
14858;SDS011;7521;51.700;6.874;2024-02-23T01:47:58;6.17;;;1.60;;
14858;SDS011;7521;51.700;6.874;2024-02-23T01:51:04;2.30;;;1.20;;
14858;SDS011;7521;51.700;6.874;2024-02-23T01:54:09;6.20;;;1.27;;
14858;SDS011;7521;51.700;6.874;2024-02-23T01:57:14;2.63;;;1.33;;
14858;SDS011;7521;51.700;6.874;2024-02-23T02:00:20;4.77;;;1.23;;
14858;SDS011;7521;51.700;6.874;2024-02-23T02:03:25;4.97;;;0.93;;
14858;SDS011;7521;51.700;6.874;2024-02-23T02:06:31;5.07;;;0.97;;
14858;SDS011;7521;51.700;6.874;2024-02-23T02:09:36;2.47;;;0.90;;
14858;SDS011;7521;51.700;6.874;2024-02-23T02:12:41;3.05;;;0.77;;
14858;SDS011;7521;51.700;6.874;2024-02-23T02:15:46;1.70;;;0.70;;
14858;SDS011;7521;51.700;6.874;2024-02-23T02:18:51;3.55;;;0.98;;
14858;SDS011;7521;51.700;6.874;2024-02-23T02:21:56;1.77;;;0.73;;
14858;SDS011;7521;51.700;6.874;2024-02-23T02:25:02;2.80;;;0.70;;
14858;SDS011;7521;51.700;6.874;2024-02-23T02:28:07;3.10;;;0.70;;
14858;SDS011;7521;51.700;6.874;2024-02-23T02:31:12;1.60;;;0.60;;
14858;SDS011;7521;51.700;6.874;2024-02-23T02:34:18;6.90;;;0.80;;
14858;SDS011;7521;51.700;6.874;2024-02-23T02:37:23;4.38;;;0.85;;
14858;SDS011;7521;51.700;6.874;2024-02-23T02:40:28;2.87;;;0.90;;
14858;SDS011;7521;51.700;6.874;2024-02-23T02:43:33;2.57;;;0.60;;
14858;SDS011;7521;51.700;6.874;2024-02-23T02:46:39;4.80;;;0.60;;
14858;SDS011;7521;51.700;6.874;2024-02-23T02:49:44;3.27;;;0.67;;
14858;SDS011;7521;51.700;6.874;2024-02-23T02:52:49;3.22;;;0.70;;
14858;SDS011;7521;51.700;6.874;2024-02-23T02:55:54;3.47;;;0.90;;
14858;SDS011;7521;51.700;6.874;2024-02-23T02:58:59;6.30;;;1.30;;
14858;SDS011;7521;51.700;6.874;2024-02-23T03:02:05;3.42;;;1.33;;
14858;SDS011;7521;51.700;6.874;2024-02-23T03:05:10;2.73;;;0.80;;
14858;SDS011;7521;51.700;6.874;2024-02-23T03:08:15;4.60;;;0.87;;
14858;SDS011;7521;51.700;6.874;2024-02-23T03:11:20;4.63;;;1.00;;
14858;SDS011;7521;51.700;6.874;2024-02-23T03:14:25;4.07;;;1.03;;
14858;SDS011;7521;51.700;6.874;2024-02-23T03:17:31;7.03;;;0.90;;
14858;SDS011;7521;51.700;6.874;2024-02-23T03:20:36;4.30;;;0.80;;
14858;SDS011;7521;51.700;6.874;2024-02-23T03:23:41;4.63;;;1.10;;
14858;SDS011;7521;51.700;6.874;2024-02-23T03:26:46;5.43;;;1.13;;
14858;SDS011;7521;51.700;6.874;2024-02-23T03:29:51;9.50;;;1.20;;
14858;SDS011;7521;51.700;6.874;2024-02-23T03:32:56;3.13;;;0.65;;
14858;SDS011;7521;51.700;6.874;2024-02-23T03:36:02;7.88;;;1.08;;
14858;SDS011;7521;51.700;6.874;2024-02-23T03:39:07;5.13;;;0.80;;
14858;SDS011;7521;51.700;6.874;2024-02-23T03:42:13;4.83;;;0.67;;
14858;SDS011;7521;51.700;6.874;2024-02-23T03:45:18;3.20;;;0.70;;
14858;SDS011;7521;51.700;6.874;2024-02-23T03:48:23;2.90;;;0.68;;
14858;SDS011;7521;51.700;6.874;2024-02-23T03:51:30;2.97;;;0.63;;
14858;SDS011;7521;51.700;6.874;2024-02-23T03:54:37;3.17;;;0.60;;
14858;SDS011;7521;51.700;6.874;2024-02-23T03:57:43;6.37;;;0.70;;
14858;SDS011;7521;51.700;6.874;2024-02-23T04:00:48;2.83;;;1.10;;
14858;SDS011;7521;51.700;6.874;2024-02-23T04:03:53;5.60;;;0.77;;
14858;SDS011;7521;51.700;6.874;2024-02-23T04:06:58;3.60;;;0.85;;
14858;SDS011;7521;51.700;6.874;2024-02-23T04:10:04;2.37;;;0.63;;
14858;SDS011;7521;51.700;6.874;2024-02-23T04:13:09;4.83;;;0.90;;
14858;SDS011;7521;51.700;6.874;2024-02-23T04:16:15;1.90;;;0.70;;
14858;SDS011;7521;51.700;6.874;2024-02-23T04:19:20;3.90;;;0.85;;
14858;SDS011;7521;51.700;6.874;2024-02-23T04:22:28;2.80;;;0.80;;
14858;SDS011;7521;51.700;6.874;2024-02-23T04:25:33;5.95;;;0.80;;
14858;SDS011;7521;51.700;6.874;2024-02-23T04:28:39;5.23;;;1.20;;
14858;SDS011;7521;51.700;6.874;2024-02-23T04:31:44;3.00;;;0.60;;
14858;SDS011;7521;51.700;6.874;2024-02-23T04:34:49;4.72;;;0.82;;
14858;SDS011;7521;51.700;6.874;2024-02-23T04:37:54;6.70;;;1.27;;
14858;SDS011;7521;51.700;6.874;2024-02-23T04:41:02;4.63;;;1.10;;
14858;SDS011;7521;51.700;6.874;2024-02-23T04:44:07;4.97;;;0.67;;
14858;SDS011;7521;51.700;6.874;2024-02-23T04:47:13;5.93;;;0.80;;
14858;SDS011;7521;51.700;6.874;2024-02-23T04:50:19;6.20;;;1.00;;
14858;SDS011;7521;51.700;6.874;2024-02-23T04:53:24;8.00;;;1.58;;
14858;SDS011;7521;51.700;6.874;2024-02-23T04:56:29;7.97;;;1.10;;
14858;SDS011;7521;51.700;6.874;2024-02-23T04:59:34;2.23;;;0.80;;
14858;SDS011;7521;51.700;6.874;2024-02-23T05:02:40;4.18;;;0.90;;
14858;SDS011;7521;51.700;6.874;2024-02-23T05:05:45;6.57;;;1.10;;
14858;SDS011;7521;51.700;6.874;2024-02-23T05:08:50;4.07;;;0.80;;
14858;SDS011;7521;51.700;6.874;2024-02-23T05:11:55;7.03;;;0.90;;
14858;SDS011;7521;51.700;6.874;2024-02-23T05:15:00;4.65;;;0.77;;
14858;SDS011;7521;51.700;6.874;2024-02-23T05:18:06;3.63;;;0.80;;
14858;SDS011;7521;51.700;6.874;2024-02-23T05:21:11;6.17;;;0.90;;
14858;SDS011;7521;51.700;6.874;2024-02-23T05:24:16;6.13;;;1.17;;
14858;SDS011;7521;51.700;6.874;2024-02-23T05:27:21;7.00;;;0.90;;
14858;SDS011;7521;51.700;6.874;2024-02-23T05:30:26;2.65;;;0.93;;
14858;SDS011;7521;51.700;6.874;2024-02-23T05:33:32;5.80;;;0.80;;
14858;SDS011;7521;51.700;6.874;2024-02-23T05:36:37;6.30;;;0.98;;
14858;SDS011;7521;51.700;6.874;2024-02-23T05:39:42;12.55;;;1.23;;
14858;SDS011;7521;51.700;6.874;2024-02-23T05:42:48;5.53;;;0.90;;
14858;SDS011;7521;51.700;6.874;2024-02-23T05:45:53;5.70;;;0.98;;
14858;SDS011;7521;51.700;6.874;2024-02-23T05:49:02;5.87;;;0.90;;
14858;SDS011;7521;51.700;6.874;2024-02-23T05:52:09;6.10;;;1.57;;
14858;SDS011;7521;51.700;6.874;2024-02-23T05:55:14;7.23;;;1.43;;
14858;SDS011;7521;51.700;6.874;2024-02-23T05:58:19;7.27;;;1.50;;
14858;SDS011;7521;51.700;6.874;2024-02-23T06:01:26;6.03;;;1.80;;
14858;SDS011;7521;51.700;6.874;2024-02-23T06:04:31;4.30;;;0.93;;
14858;SDS011;7521;51.700;6.874;2024-02-23T06:07:36;7.17;;;1.07;;
14858;SDS011;7521;51.700;6.874;2024-02-23T06:10:41;6.93;;;1.17;;
14858;SDS011;7521;51.700;6.874;2024-02-23T06:13:48;6.20;;;0.90;;
14858;SDS011;7521;51.700;6.874;2024-02-23T06:16:53;7.30;;;1.37;;
14858;SDS011;7521;51.700;6.874;2024-02-23T06:19:58;7.20;;;1.10;;
14858;SDS011;7521;51.700;6.874;2024-02-23T06:23:04;7.83;;;1.33;;
14858;SDS011;7521;51.700;6.874;2024-02-23T06:26:09;12.87;;;1.40;;
14858;SDS011;7521;51.700;6.874;2024-02-23T06:29:14;9.03;;;1.83;;
14858;SDS011;7521;51.700;6.874;2024-02-23T06:32:19;10.57;;;1.48;;
14858;SDS011;7521;51.700;6.874;2024-02-23T06:35:25;7.83;;;1.70;;
14858;SDS011;7521;51.700;6.874;2024-02-23T06:38:30;18.27;;;2.08;;
14858;SDS011;7521;51.700;6.874;2024-02-23T06:41:35;5.17;;;1.33;;
14858;SDS011;7521;51.700;6.874;2024-02-23T06:44:43;7.80;;;1.20;;
14858;SDS011;7521;51.700;6.874;2024-02-23T06:47:49;5.40;;;1.03;;
14858;SDS011;7521;51.700;6.874;2024-02-23T06:50:54;5.57;;;1.10;;
14858;SDS011;7521;51.700;6.874;2024-02-23T06:53:59;2.95;;;0.93;;
14858;SDS011;7521;51.700;6.874;2024-02-23T06:57:04;6.88;;;1.25;;
14858;SDS011;7521;51.700;6.874;2024-02-23T07:00:09;9.30;;;1.20;;
14858;SDS011;7521;51.700;6.874;2024-02-23T07:03:15;6.03;;;0.97;;
14858;SDS011;7521;51.700;6.874;2024-02-23T07:06:21;5.10;;;1.00;;
14858;SDS011;7521;51.700;6.874;2024-02-23T07:09:26;5.87;;;1.20;;
14858;SDS011;7521;51.700;6.874;2024-02-23T07:12:32;5.97;;;1.30;;
14858;SDS011;7521;51.700;6.874;2024-02-23T07:15:37;9.50;;;1.40;;
14858;SDS011;7521;51.700;6.874;2024-02-23T07:18:42;7.53;;;1.10;;
14858;SDS011;7521;51.700;6.874;2024-02-23T07:21:47;5.87;;;1.03;;
14858;SDS011;7521;51.700;6.874;2024-02-23T07:24:52;7.50;;;1.13;;
14858;SDS011;7521;51.700;6.874;2024-02-23T07:27:58;4.43;;;1.20;;
14858;SDS011;7521;51.700;6.874;2024-02-23T07:31:03;3.43;;;1.20;;
14858;SDS011;7521;51.700;6.874;2024-02-23T07:34:08;8.50;;;1.80;;
14858;SDS011;7521;51.700;6.874;2024-02-23T07:37:13;7.22;;;1.30;;
14858;SDS011;7521;51.700;6.874;2024-02-23T07:40:19;7.40;;;1.15;;
14858;SDS011;7521;51.700;6.874;2024-02-23T07:43:24;9.77;;;1.23;;
14858;SDS011;7521;51.700;6.874;2024-02-23T07:46:31;8.23;;;1.00;;
14858;SDS011;7521;51.700;6.874;2024-02-23T07:49:36;5.80;;;1.10;;
14858;SDS011;7521;51.700;6.874;2024-02-23T07:52:41;4.38;;;1.00;;
14858;SDS011;7521;51.700;6.874;2024-02-23T07:55:46;4.13;;;1.48;;
14858;SDS011;7521;51.700;6.874;2024-02-23T07:58:51;4.05;;;0.85;;
14858;SDS011;7521;51.700;6.874;2024-02-23T08:01:57;5.15;;;1.45;;
14858;SDS011;7521;51.700;6.874;2024-02-23T08:05:02;9.00;;;1.52;;
14858;SDS011;7521;51.700;6.874;2024-02-23T08:08:08;3.00;;;0.70;;
14858;SDS011;7521;51.700;6.874;2024-02-23T08:11:14;5.23;;;0.80;;
14858;SDS011;7521;51.700;6.874;2024-02-23T08:14:19;7.43;;;1.43;;
14858;SDS011;7521;51.700;6.874;2024-02-23T08:17:24;4.68;;;0.95;;
14858;SDS011;7521;51.700;6.874;2024-02-23T08:20:30;9.53;;;1.73;;
14858;SDS011;7521;51.700;6.874;2024-02-23T08:23:35;9.25;;;1.50;;
14858;SDS011;7521;51.700;6.874;2024-02-23T08:26:41;6.10;;;1.20;;
14858;SDS011;7521;51.700;6.874;2024-02-23T08:29:47;5.30;;;0.60;;
14858;SDS011;7521;51.700;6.874;2024-02-23T08:32:52;6.27;;;0.80;;
14858;SDS011;7521;51.700;6.874;2024-02-23T08:35:57;6.03;;;0.87;;
14858;SDS011;7521;51.700;6.874;2024-02-23T08:39:02;3.27;;;0.83;;
14858;SDS011;7521;51.700;6.874;2024-02-23T08:42:08;6.83;;;1.27;;
14858;SDS011;7521;51.700;6.874;2024-02-23T08:45:13;6.28;;;1.13;;
14858;SDS011;7521;51.700;6.874;2024-02-23T08:48:18;3.67;;;1.07;;
14858;SDS011;7521;51.700;6.874;2024-02-23T08:51:23;5.17;;;1.20;;
14858;SDS011;7521;51.700;6.874;2024-02-23T08:54:28;4.50;;;0.98;;
14858;SDS011;7521;51.700;6.874;2024-02-23T08:57:34;3.30;;;1.08;;
14858;SDS011;7521;51.700;6.874;2024-02-23T09:00:39;6.00;;;1.03;;
14858;SDS011;7521;51.700;6.874;2024-02-23T09:03:44;5.50;;;1.38;;
14858;SDS011;7521;51.700;6.874;2024-02-23T09:06:49;3.17;;;0.87;;
14858;SDS011;7521;51.700;6.874;2024-02-23T09:09:56;10.73;;;1.20;;
14858;SDS011;7521;51.700;6.874;2024-02-23T09:13:02;7.93;;;1.13;;
14858;SDS011;7521;51.700;6.874;2024-02-23T09:16:08;5.20;;;1.07;;
14858;SDS011;7521;51.700;6.874;2024-02-23T09:19:13;4.63;;;0.80;;
14858;SDS011;7521;51.700;6.874;2024-02-23T09:22:19;3.60;;;1.13;;
14858;SDS011;7521;51.700;6.874;2024-02-23T09:25:24;3.67;;;1.13;;
14858;SDS011;7521;51.700;6.874;2024-02-23T09:28:29;4.97;;;0.90;;
14858;SDS011;7521;51.700;6.874;2024-02-23T09:31:35;8.83;;;1.00;;
14858;SDS011;7521;51.700;6.874;2024-02-23T09:34:40;3.63;;;0.73;;
14858;SDS011;7521;51.700;6.874;2024-02-23T09:37:45;3.83;;;0.90;;
14858;SDS011;7521;51.700;6.874;2024-02-23T09:40:51;3.37;;;0.53;;
14858;SDS011;7521;51.700;6.874;2024-02-23T09:43:59;5.77;;;1.20;;
14858;SDS011;7521;51.700;6.874;2024-02-23T09:47:06;3.63;;;0.80;;
14858;SDS011;7521;51.700;6.874;2024-02-23T09:50:15;8.13;;;1.10;;
14858;SDS011;7521;51.700;6.874;2024-02-23T09:53:21;6.20;;;1.07;;
14858;SDS011;7521;51.700;6.874;2024-02-23T09:56:27;4.00;;;0.97;;
14858;SDS011;7521;51.700;6.874;2024-02-23T09:59:36;5.60;;;0.87;;
14858;SDS011;7521;51.700;6.874;2024-02-23T10:02:41;4.00;;;0.90;;
14858;SDS011;7521;51.700;6.874;2024-02-23T10:05:47;5.40;;;1.20;;
14858;SDS011;7521;51.700;6.874;2024-02-23T10:08:52;4.00;;;0.80;;
14858;SDS011;7521;51.700;6.874;2024-02-23T10:12:01;4.53;;;0.90;;
14858;SDS011;7521;51.700;6.874;2024-02-23T10:15:07;5.00;;;0.90;;
14858;SDS011;7521;51.700;6.874;2024-02-23T10:18:12;5.13;;;1.53;;
14858;SDS011;7521;51.700;6.874;2024-02-23T10:21:17;7.70;;;0.97;;
14858;SDS011;7521;51.700;6.874;2024-02-23T10:24:23;3.10;;;0.97;;
14858;SDS011;7521;51.700;6.874;2024-02-23T10:27:29;4.83;;;1.00;;
14858;SDS011;7521;51.700;6.874;2024-02-23T10:30:34;4.00;;;0.97;;
14858;SDS011;7521;51.700;6.874;2024-02-23T10:33:41;5.30;;;1.00;;
14858;SDS011;7521;51.700;6.874;2024-02-23T10:36:48;5.87;;;1.47;;
14858;SDS011;7521;51.700;6.874;2024-02-23T10:39:57;5.00;;;1.00;;
14858;SDS011;7521;51.700;6.874;2024-02-23T10:43:03;3.80;;;0.90;;
14858;SDS011;7521;51.700;6.874;2024-02-23T10:46:11;4.23;;;0.83;;
14858;SDS011;7521;51.700;6.874;2024-02-23T10:49:18;6.00;;;1.33;;
14858;SDS011;7521;51.700;6.874;2024-02-23T10:52:25;4.67;;;1.27;;
14858;SDS011;7521;51.700;6.874;2024-02-23T10:55:31;5.77;;;1.00;;
14858;SDS011;7521;51.700;6.874;2024-02-23T10:58:37;4.50;;;1.00;;
14858;SDS011;7521;51.700;6.874;2024-02-23T11:01:42;10.43;;;1.37;;
14858;SDS011;7521;51.700;6.874;2024-02-23T11:04:48;3.80;;;1.03;;
14858;SDS011;7521;51.700;6.874;2024-02-23T11:07:56;2.30;;;1.00;;
14858;SDS011;7521;51.700;6.874;2024-02-23T11:11:08;7.40;;;1.13;;
14858;SDS011;7521;51.700;6.874;2024-02-23T11:14:13;6.03;;;1.20;;
14858;SDS011;7521;51.700;6.874;2024-02-23T11:17:19;3.27;;;1.00;;
14858;SDS011;7521;51.700;6.874;2024-02-23T11:20:33;5.30;;;0.90;;
14858;SDS011;7521;51.700;6.874;2024-02-23T11:23:42;4.17;;;1.00;;
14858;SDS011;7521;51.700;6.874;2024-02-23T11:26:47;4.63;;;0.93;;
14858;SDS011;7521;51.700;6.874;2024-02-23T11:30:03;3.70;;;0.90;;
14858;SDS011;7521;51.700;6.874;2024-02-23T11:33:08;4.03;;;1.00;;
14858;SDS011;7521;51.700;6.874;2024-02-23T11:36:21;4.13;;;0.98;;
14858;SDS011;7521;51.700;6.874;2024-02-23T11:39:26;4.23;;;1.23;;
14858;SDS011;7521;51.700;6.874;2024-02-23T11:42:32;4.70;;;0.93;;
14858;SDS011;7521;51.700;6.874;2024-02-23T11:45:38;5.93;;;1.07;;
14858;SDS011;7521;51.700;6.874;2024-02-23T11:48:43;5.18;;;0.93;;
14858;SDS011;7521;51.700;6.874;2024-02-23T11:51:49;7.40;;;1.00;;
14858;SDS011;7521;51.700;6.874;2024-02-23T11:54:54;6.17;;;1.40;;
14858;SDS011;7521;51.700;6.874;2024-02-23T11:58:00;7.03;;;1.30;;
14858;SDS011;7521;51.700;6.874;2024-02-23T12:01:06;4.80;;;1.10;;
14858;SDS011;7521;51.700;6.874;2024-02-23T12:04:12;5.27;;;1.40;;
14858;SDS011;7521;51.700;6.874;2024-02-23T12:07:17;5.67;;;1.30;;
14858;SDS011;7521;51.700;6.874;2024-02-23T12:10:23;5.50;;;0.80;;
14858;SDS011;7521;51.700;6.874;2024-02-23T12:13:28;6.00;;;1.40;;
14858;SDS011;7521;51.700;6.874;2024-02-23T12:16:34;4.30;;;1.10;;
14858;SDS011;7521;51.700;6.874;2024-02-23T12:19:41;4.97;;;0.77;;
14858;SDS011;7521;51.700;6.874;2024-02-23T12:22:47;7.93;;;1.10;;
14858;SDS011;7521;51.700;6.874;2024-02-23T12:25:58;6.77;;;1.20;;
14858;SDS011;7521;51.700;6.874;2024-02-23T12:29:04;6.77;;;1.37;;
14858;SDS011;7521;51.700;6.874;2024-02-23T12:32:10;8.87;;;1.10;;
14858;SDS011;7521;51.700;6.874;2024-02-23T12:35:15;7.47;;;1.13;;
14858;SDS011;7521;51.700;6.874;2024-02-23T12:38:21;7.27;;;0.90;;
14858;SDS011;7521;51.700;6.874;2024-02-23T12:41:27;6.67;;;1.00;;
14858;SDS011;7521;51.700;6.874;2024-02-23T12:44:32;5.20;;;0.82;;
14858;SDS011;7521;51.700;6.874;2024-02-23T12:47:37;6.07;;;1.20;;
14858;SDS011;7521;51.700;6.874;2024-02-23T12:50:43;7.40;;;1.10;;
14858;SDS011;7521;51.700;6.874;2024-02-23T12:53:49;2.77;;;0.90;;
14858;SDS011;7521;51.700;6.874;2024-02-23T12:56:55;3.97;;;0.80;;
14858;SDS011;7521;51.700;6.874;2024-02-23T13:00:00;6.80;;;1.38;;
14858;SDS011;7521;51.700;6.874;2024-02-23T13:03:05;3.43;;;0.80;;
14858;SDS011;7521;51.700;6.874;2024-02-23T13:06:11;4.67;;;1.10;;
14858;SDS011;7521;51.700;6.874;2024-02-23T13:09:18;5.33;;;0.70;;
14858;SDS011;7521;51.700;6.874;2024-02-23T13:12:23;5.50;;;0.80;;
14858;SDS011;7521;51.700;6.874;2024-02-23T13:15:29;2.03;;;0.60;;
14858;SDS011;7521;51.700;6.874;2024-02-23T13:18:34;5.27;;;1.20;;
14858;SDS011;7521;51.700;6.874;2024-02-23T13:21:40;3.07;;;0.80;;
14858;SDS011;7521;51.700;6.874;2024-02-23T13:24:45;5.83;;;1.03;;
14858;SDS011;7521;51.700;6.874;2024-02-23T13:27:50;6.17;;;1.07;;
14858;SDS011;7521;51.700;6.874;2024-02-23T13:30:55;6.88;;;2.00;;
14858;SDS011;7521;51.700;6.874;2024-02-23T13:34:00;4.55;;;1.27;;
14858;SDS011;7521;51.700;6.874;2024-02-23T13:37:05;4.80;;;1.00;;
14858;SDS011;7521;51.700;6.874;2024-02-23T13:40:11;5.85;;;1.20;;
14858;SDS011;7521;51.700;6.874;2024-02-23T13:43:16;2.73;;;0.80;;
14858;SDS011;7521;51.700;6.874;2024-02-23T13:46:21;3.97;;;1.10;;
14858;SDS011;7521;51.700;6.874;2024-02-23T13:49:27;3.28;;;0.95;;
14858;SDS011;7521;51.700;6.874;2024-02-23T13:52:32;2.00;;;0.73;;
14858;SDS011;7521;51.700;6.874;2024-02-23T13:55:37;3.50;;;0.70;;
14858;SDS011;7521;51.700;6.874;2024-02-23T13:58:43;4.37;;;0.93;;
14858;SDS011;7521;51.700;6.874;2024-02-23T14:01:48;5.37;;;1.20;;
14858;SDS011;7521;51.700;6.874;2024-02-23T14:04:53;4.40;;;0.70;;
14858;SDS011;7521;51.700;6.874;2024-02-23T14:08:00;2.87;;;0.90;;
14858;SDS011;7521;51.700;6.874;2024-02-23T14:11:05;5.32;;;0.82;;
14858;SDS011;7521;51.700;6.874;2024-02-23T14:14:10;4.57;;;0.97;;
14858;SDS011;7521;51.700;6.874;2024-02-23T14:17:16;3.70;;;0.57;;
14858;SDS011;7521;51.700;6.874;2024-02-23T14:20:21;8.03;;;1.30;;
14858;SDS011;7521;51.700;6.874;2024-02-23T14:23:26;4.67;;;1.23;;
14858;SDS011;7521;51.700;6.874;2024-02-23T14:26:31;5.82;;;1.20;;
14858;SDS011;7521;51.700;6.874;2024-02-23T14:29:38;4.07;;;1.33;;
14858;SDS011;7521;51.700;6.874;2024-02-23T14:32:43;5.80;;;1.50;;
14858;SDS011;7521;51.700;6.874;2024-02-23T14:35:48;6.50;;;0.97;;
14858;SDS011;7521;51.700;6.874;2024-02-23T14:38:54;9.23;;;1.20;;
14858;SDS011;7521;51.700;6.874;2024-02-23T14:42:00;6.40;;;1.20;;
14858;SDS011;7521;51.700;6.874;2024-02-23T14:45:05;5.60;;;1.00;;
14858;SDS011;7521;51.700;6.874;2024-02-23T14:48:10;6.97;;;0.90;;
14858;SDS011;7521;51.700;6.874;2024-02-23T14:51:16;3.08;;;0.80;;
14858;SDS011;7521;51.700;6.874;2024-02-23T14:54:21;4.57;;;1.08;;
14858;SDS011;7521;51.700;6.874;2024-02-23T14:57:26;4.20;;;1.10;;
14858;SDS011;7521;51.700;6.874;2024-02-23T15:00:31;7.30;;;0.97;;
14858;SDS011;7521;51.700;6.874;2024-02-23T15:03:38;4.23;;;1.10;;
14858;SDS011;7521;51.700;6.874;2024-02-23T15:06:43;5.93;;;1.20;;
14858;SDS011;7521;51.700;6.874;2024-02-23T15:09:48;4.32;;;0.68;;
14858;SDS011;7521;51.700;6.874;2024-02-23T15:12:53;3.85;;;0.73;;
14858;SDS011;7521;51.700;6.874;2024-02-23T15:15:58;3.23;;;0.93;;
14858;SDS011;7521;51.700;6.874;2024-02-23T15:19:04;4.73;;;1.13;;
14858;SDS011;7521;51.700;6.874;2024-02-23T15:22:09;7.00;;;0.80;;
14858;SDS011;7521;51.700;6.874;2024-02-23T15:25:19;5.70;;;1.40;;
14858;SDS011;7521;51.700;6.874;2024-02-23T15:28:24;4.07;;;1.43;;
14858;SDS011;7521;51.700;6.874;2024-02-23T15:31:30;7.27;;;1.50;;
14858;SDS011;7521;51.700;6.874;2024-02-23T15:34:35;5.87;;;0.87;;
14858;SDS011;7521;51.700;6.874;2024-02-23T15:37:40;2.90;;;1.00;;
14858;SDS011;7521;51.700;6.874;2024-02-23T15:40:45;6.93;;;1.03;;
14858;SDS011;7521;51.700;6.874;2024-02-23T15:43:51;6.57;;;1.00;;
14858;SDS011;7521;51.700;6.874;2024-02-23T15:46:56;3.33;;;0.80;;
14858;SDS011;7521;51.700;6.874;2024-02-23T15:50:01;6.67;;;1.07;;
14858;SDS011;7521;51.700;6.874;2024-02-23T15:53:06;10.50;;;1.40;;
14858;SDS011;7521;51.700;6.874;2024-02-23T15:56:12;7.90;;;1.03;;
14858;SDS011;7521;51.700;6.874;2024-02-23T15:59:17;2.53;;;0.70;;
14858;SDS011;7521;51.700;6.874;2024-02-23T16:02:23;2.80;;;0.67;;
14858;SDS011;7521;51.700;6.874;2024-02-23T16:05:28;4.90;;;0.80;;
14858;SDS011;7521;51.700;6.874;2024-02-23T16:08:39;3.67;;;0.85;;
14858;SDS011;7521;51.700;6.874;2024-02-23T16:11:46;2.33;;;0.83;;
14858;SDS011;7521;51.700;6.874;2024-02-23T16:14:52;5.03;;;0.70;;
14858;SDS011;7521;51.700;6.874;2024-02-23T16:17:57;3.20;;;1.03;;
14858;SDS011;7521;51.700;6.874;2024-02-23T16:21:02;3.97;;;1.37;;
14858;SDS011;7521;51.700;6.874;2024-02-23T16:24:08;3.03;;;1.13;;
14858;SDS011;7521;51.700;6.874;2024-02-23T16:27:13;1.43;;;0.50;;
14858;SDS011;7521;51.700;6.874;2024-02-23T16:30:19;4.60;;;0.67;;
14858;SDS011;7521;51.700;6.874;2024-02-23T16:33:24;1.83;;;0.77;;
14858;SDS011;7521;51.700;6.874;2024-02-23T16:36:30;2.33;;;0.73;;
14858;SDS011;7521;51.700;6.874;2024-02-23T16:39:35;4.77;;;0.90;;
14858;SDS011;7521;51.700;6.874;2024-02-23T16:42:40;1.70;;;0.97;;
14858;SDS011;7521;51.700;6.874;2024-02-23T16:45:46;2.23;;;0.90;;
14858;SDS011;7521;51.700;6.874;2024-02-23T16:48:51;3.10;;;1.02;;
14858;SDS011;7521;51.700;6.874;2024-02-23T16:51:56;3.72;;;0.80;;
14858;SDS011;7521;51.700;6.874;2024-02-23T16:55:02;3.53;;;0.80;;
14858;SDS011;7521;51.700;6.874;2024-02-23T16:58:07;6.03;;;0.77;;
14858;SDS011;7521;51.700;6.874;2024-02-23T17:01:13;1.73;;;0.93;;
14858;SDS011;7521;51.700;6.874;2024-02-23T17:04:18;3.83;;;1.10;;
14858;SDS011;7521;51.700;6.874;2024-02-23T17:07:23;1.73;;;1.00;;
14858;SDS011;7521;51.700;6.874;2024-02-23T17:10:28;3.77;;;1.20;;
14858;SDS011;7521;51.700;6.874;2024-02-23T17:13:34;3.40;;;1.30;;
14858;SDS011;7521;51.700;6.874;2024-02-23T17:16:40;4.13;;;1.90;;
14858;SDS011;7521;51.700;6.874;2024-02-23T17:19:45;4.20;;;1.73;;
14858;SDS011;7521;51.700;6.874;2024-02-23T17:22:50;4.27;;;1.80;;
14858;SDS011;7521;51.700;6.874;2024-02-23T17:25:56;4.80;;;1.80;;
14858;SDS011;7521;51.700;6.874;2024-02-23T17:29:02;4.20;;;1.80;;
14858;SDS011;7521;51.700;6.874;2024-02-23T17:32:07;7.80;;;3.57;;
14858;SDS011;7521;51.700;6.874;2024-02-23T17:35:12;4.10;;;1.85;;
14858;SDS011;7521;51.700;6.874;2024-02-23T17:38:19;5.13;;;1.83;;
14858;SDS011;7521;51.700;6.874;2024-02-23T17:41:24;4.05;;;1.50;;
14858;SDS011;7521;51.700;6.874;2024-02-23T17:44:29;8.97;;;1.87;;
14858;SDS011;7521;51.700;6.874;2024-02-23T17:47:35;5.50;;;1.50;;
14858;SDS011;7521;51.700;6.874;2024-02-23T17:50:40;1.87;;;1.30;;
14858;SDS011;7521;51.700;6.874;2024-02-23T17:53:45;4.93;;;1.90;;
14858;SDS011;7521;51.700;6.874;2024-02-23T17:56:51;3.97;;;1.83;;
14858;SDS011;7521;51.700;6.874;2024-02-23T17:59:56;5.33;;;1.90;;
14858;SDS011;7521;51.700;6.874;2024-02-23T18:03:01;4.53;;;1.50;;
14858;SDS011;7521;51.700;6.874;2024-02-23T18:06:07;6.30;;;2.23;;
14858;SDS011;7521;51.700;6.874;2024-02-23T18:09:12;4.73;;;1.70;;
14858;SDS011;7521;51.700;6.874;2024-02-23T18:12:17;4.60;;;1.87;;
14858;SDS011;7521;51.700;6.874;2024-02-23T18:15:23;6.60;;;1.83;;
14858;SDS011;7521;51.700;6.874;2024-02-23T18:18:29;3.87;;;1.60;;
14858;SDS011;7521;51.700;6.874;2024-02-23T18:21:34;3.20;;;1.53;;
14858;SDS011;7521;51.700;6.874;2024-02-23T18:24:40;4.23;;;1.90;;
14858;SDS011;7521;51.700;6.874;2024-02-23T18:27:46;4.30;;;1.83;;
14858;SDS011;7521;51.700;6.874;2024-02-23T18:30:52;3.93;;;1.80;;
14858;SDS011;7521;51.700;6.874;2024-02-23T18:33:57;5.82;;;1.77;;
14858;SDS011;7521;51.700;6.874;2024-02-23T18:37:03;3.67;;;1.80;;
14858;SDS011;7521;51.700;6.874;2024-02-23T18:40:10;4.83;;;1.97;;
14858;SDS011;7521;51.700;6.874;2024-02-23T18:43:16;5.93;;;2.00;;
14858;SDS011;7521;51.700;6.874;2024-02-23T18:46:21;4.23;;;2.17;;
14858;SDS011;7521;51.700;6.874;2024-02-23T18:49:26;4.20;;;2.55;;
14858;SDS011;7521;51.700;6.874;2024-02-23T18:52:34;6.80;;;2.90;;
14858;SDS011;7521;51.700;6.874;2024-02-23T18:55:39;9.18;;;2.80;;